»·PEaware :: N751LU KIFP-KTRM

N751LU :: KIFP-KTRM

FLIGHT INFORMATION

Flight Status: Arrived
Operator: Privately registered:
United States
More flights under this callsign
Pilot: Ewen S. (18928)
Aircraft: BEECH AIRCRAFT BARON
(BE55)
More flights by this aircraft type
Origin: KIFP Laughlin/Bullhead Intl
United States
Destination: KTRM Desert Resorts Regl
United States
More flights between these airports :: More routes between these airports
Route: ++ EED + GFS SBONO1
File this flight plan on PilotEdge
Remarks:
Altitude:
(Current/Filed)
15,000ft
Speed:
(Current/Filed)
155kts
Departed: 22-Jun-18 02:26 PM
Arrived: 22-Jun-18 03:33 PM
Distance/Time
Traveled:
121nm/1:07
Distance/Time
To Go:
Arrived

Flight Plot

Page will automatically refresh every two minutes.

Flight plan parsing failed; only flown route is shown


Map Options




Map Legend


Flown Route
Filed Route
Departure Airport
Arrival Airport
Navaid (VOR, NDB)
Fix

Horizontal Profiles

Position Reports

Time Latitude Longitude Heading Altitude Ground
Speed
22-Jun-18 14:05 35.165026 -114.556325 85 643ft 0kts
22-Jun-18 14:06 35.165026 -114.556325 85 643ft 0kts
22-Jun-18 14:07 35.165026 -114.556324 85 643ft 0kts
22-Jun-18 14:08 35.165026 -114.556324 85 643ft 0kts
22-Jun-18 14:09 35.165026 -114.556324 85 643ft 0kts
22-Jun-18 14:10 35.165026 -114.556324 85 643ft 0kts
22-Jun-18 14:11 35.165026 -114.556323 85 643ft 0kts
22-Jun-18 14:12 35.165026 -114.556323 85 643ft 0kts
22-Jun-18 14:13 35.165026 -114.556323 85 643ft 0kts
22-Jun-18 14:14 35.165026 -114.556322 85 643ft 0kts
22-Jun-18 14:15 35.165026 -114.556322 85 643ft 0kts
22-Jun-18 14:16 35.165026 -114.556322 85 643ft 0kts
22-Jun-18 14:17 35.165026 -114.556321 85 643ft 0kts
22-Jun-18 14:18 35.165026 -114.556321 85 643ft 0kts
22-Jun-18 14:19 35.165026 -114.556320 85 643ft 0kts
22-Jun-18 14:20 35.165006 -114.556277 148 643ft 1kts
22-Jun-18 14:21 35.164991 -114.556851 275 643ft 10kts
22-Jun-18 14:22 35.163019 -114.558609 177 643ft 29kts
22-Jun-18 14:23 35.155760 -114.558071 177 643ft 16kts
22-Jun-18 14:24 35.149284 -114.557556 178 643ft 18kts
22-Jun-18 14:25 35.145925 -114.557430 219 643ft 0kts
22-Jun-18 14:26 35.151853 -114.559185 357 644ft 76kts
22-Jun-18 14:27 35.181626 -114.561475 357 1266ft 120kts
22-Jun-18 14:28 35.216753 -114.562659 357 2127ft 137kts
22-Jun-18 14:29 35.225666 -114.531807 159 3005ft 153kts
22-Jun-18 14:30 35.191611 -114.554685 222 3968ft 143kts
22-Jun-18 14:31 35.152934 -114.558427 170 5116ft 144kts
22-Jun-18 14:32 35.113718 -114.549870 170 6166ft 142kts
22-Jun-18 14:33 35.075267 -114.541405 170 6902ft 139kts
22-Jun-18 14:34 35.037169 -114.533051 170 7393ft 138kts
22-Jun-18 14:35 34.999425 -114.524779 170 8077ft 136kts
22-Jun-18 14:36 34.963726 -114.516974 170 8424ft 124kts
22-Jun-18 14:37 34.946030 -114.537447 306 8562ft 127kts
22-Jun-18 14:38 34.961806 -114.573111 266 9248ft 127kts
22-Jun-18 14:39 34.969109 -114.614098 291 10009ft 125kts
22-Jun-18 14:40 34.981039 -114.654339 289 10850ft 130kts
22-Jun-18 14:41 34.993118 -114.696071 288 11739ft 129kts
22-Jun-18 14:42 35.005023 -114.737338 288 12485ft 129kts
22-Jun-18 14:43 35.017030 -114.778827 288 13322ft 129kts
22-Jun-18 14:44 35.028928 -114.820113 289 14238ft 128kts
22-Jun-18 14:45 35.040735 -114.861151 288 15152ft 127kts
22-Jun-18 14:46 35.052374 -114.901690 288 16008ft 125kts
22-Jun-18 14:47 35.065871 -114.948573 289 16012ft 161kts
22-Jun-18 14:48 35.080996 -115.001408 289 16007ft 169kts
22-Jun-18 14:49 35.098740 -115.054182 292 16008ft 169kts
22-Jun-18 14:50 35.113339 -115.107222 287 15999ft 157kts
22-Jun-18 14:51 35.125823 -115.157130 282 15996ft 152kts
22-Jun-18 14:52 35.096941 -115.189108 188 16006ft 184kts
22-Jun-18 14:53 35.050979 -115.211044 210 16005ft 184kts
22-Jun-18 14:54 35.002758 -115.233100 204 15999ft 189kts
22-Jun-18 14:55 34.953807 -115.254681 204 15997ft 191kts
22-Jun-18 14:56 34.904460 -115.276402 205 15990ft 185kts
22-Jun-18 14:57 34.856943 -115.297318 205 15987ft 178kts
22-Jun-18 14:58 34.818504 -115.314215 205 15989ft 175kts
22-Jun-18 14:59 34.772257 -115.334552 204 16004ft 183kts
22-Jun-18 15:00 34.723160 -115.356070 204 15951ft 191kts
22-Jun-18 15:01 34.673188 -115.377986 204 15956ft 191kts
22-Jun-18 15:02 34.623642 -115.399633 204 15950ft 182kts
22-Jun-18 15:03 34.576876 -115.420054 204 15990ft 174kts
22-Jun-18 15:04 34.532408 -115.439464 205 16103ft 169kts
22-Jun-18 15:05 34.487813 -115.458927 204 16087ft 172kts
22-Jun-18 15:06 34.442128 -115.478838 204 16092ft 181kts
22-Jun-18 15:07 34.394003 -115.499761 204 16093ft 184kts
22-Jun-18 15:08 34.345024 -115.521107 203 14977ft 194kts
22-Jun-18 15:09 34.301555 -115.555155 229 13908ft 182kts
22-Jun-18 15:10 34.264226 -115.598777 226 12991ft 187kts
22-Jun-18 15:11 34.224860 -115.643215 224 11946ft 193kts
22-Jun-18 15:12 34.185158 -115.687829 224 10826ft 196kts
22-Jun-18 15:13 34.145349 -115.732494 225 10060ft 195kts
22-Jun-18 15:14 34.107187 -115.774394 218 9993ft 196kts
22-Jun-18 15:15 34.061625 -115.810788 215 9987ft 199kts
22-Jun-18 15:16 34.016139 -115.847553 215 9972ft 195kts
22-Jun-18 15:17 33.971607 -115.883551 215 9956ft 189kts
22-Jun-18 15:18 33.927746 -115.918985 215 9944ft 196kts
22-Jun-18 15:19 33.898113 -115.966939 284 9922ft 184kts
22-Jun-18 15:20 33.910428 -116.024421 246 9961ft 190kts
22-Jun-18 15:21 33.867930 -116.061531 192 9615ft 211kts
22-Jun-18 15:22 33.812646 -116.081102 201 8321ft 209kts
22-Jun-18 15:23 33.758686 -116.104130 201 6919ft 202kts
22-Jun-18 15:24 33.712732 -116.123471 201 6988ft 159kts
22-Jun-18 15:25 33.669129 -116.141774 196 5933ft 193kts
22-Jun-18 15:26 33.620568 -116.156982 195 4582ft 158kts
22-Jun-18 15:27 33.599023 -116.183997 315 3200ft 140kts
22-Jun-18 15:28 33.638129 -116.185324 1 2490ft 127kts
22-Jun-18 15:29 33.672091 -116.184531 1 2443ft 127kts
22-Jun-18 15:30 33.704633 -116.179351 54 2513ft 112kts
22-Jun-18 15:31 33.685087 -116.155384 188 1523ft 140kts
22-Jun-18 15:32 33.652740 -116.156395 180 146ft 95kts
22-Jun-18 15:33 33.631626 -116.156329 170 -111ft 23kts
22-Jun-18 15:34 33.630475 -116.157758 358 -111ft 22kts
22-Jun-18 15:35 33.635178 -116.157730 0 -111ft 7kts
22-Jun-18 15:36 33.636193 -116.161507 336 -111ft 0kts
22-Jun-18 15:37 33.636193 -116.161507 336 -111ft 0kts

Navigation Log

Ident Type
Flight plan parsing failed, navigation log unavailable